sensor_id;sensor_type;location;lat;lon;timestamp;P1;durP1;ratioP1;P2;durP2;ratioP2
25169;SDS011;13129;48.012;10.352;2023-02-28T04:31:00;8.35;;;6.10;;
25169;SDS011;13129;48.012;10.352;2023-02-28T04:33:28;9.13;;;6.72;;
25169;SDS011;13129;48.012;10.352;2023-02-28T04:36:01;7.43;;;6.10;;
25169;SDS011;13129;48.012;10.352;2023-02-28T04:38:33;7.28;;;6.07;;
25169;SDS011;13129;48.012;10.352;2023-02-28T04:41:00;9.13;;;6.90;;
25169;SDS011;13129;48.012;10.352;2023-02-28T04:43:27;8.60;;;6.88;;
25169;SDS011;13129;48.012;10.352;2023-02-28T04:45:54;7.68;;;7.00;;
25169;SDS011;13129;48.012;10.352;2023-02-28T04:48:22;7.53;;;6.28;;
25169;SDS011;13129;48.012;10.352;2023-02-28T04:50:49;8.27;;;6.95;;
25169;SDS011;13129;48.012;10.352;2023-02-28T04:53:15;10.45;;;7.53;;
25169;SDS011;13129;48.012;10.352;2023-02-28T04:55:41;8.10;;;6.82;;
25169;SDS011;13129;48.012;10.352;2023-02-28T04:58:06;9.52;;;7.70;;
25169;SDS011;13129;48.012;10.352;2023-02-28T05:00:32;8.90;;;7.47;;
25169;SDS011;13129;48.012;10.352;2023-02-28T05:02:58;10.38;;;8.25;;
25169;SDS011;13129;48.012;10.352;2023-02-28T05:05:23;10.60;;;8.30;;
25169;SDS011;13129;48.012;10.352;2023-02-28T05:07:49;9.32;;;7.72;;
25169;SDS011;13129;48.012;10.352;2023-02-28T05:10:14;11.43;;;8.77;;
25169;SDS011;13129;48.012;10.352;2023-02-28T05:12:40;9.07;;;8.13;;
25169;SDS011;13129;48.012;10.352;2023-02-28T05:15:06;12.85;;;9.18;;
25169;SDS011;13129;48.012;10.352;2023-02-28T05:17:33;12.80;;;9.82;;
25169;SDS011;13129;48.012;10.352;2023-02-28T05:19:59;9.77;;;8.07;;
25169;SDS011;13129;48.012;10.352;2023-02-28T05:22:24;10.40;;;9.13;;
25169;SDS011;13129;48.012;10.352;2023-02-28T05:24:50;12.68;;;9.98;;
25169;SDS011;13129;48.012;10.352;2023-02-28T05:27:15;11.90;;;8.93;;
25169;SDS011;13129;48.012;10.352;2023-02-28T05:29:41;13.80;;;9.77;;
25169;SDS011;13129;48.012;10.352;2023-02-28T05:32:10;13.70;;;10.00;;
25169;SDS011;13129;48.012;10.352;2023-02-28T05:34:40;14.55;;;10.45;;
25169;SDS011;13129;48.012;10.352;2023-02-28T05:37:06;15.10;;;10.38;;
25169;SDS011;13129;48.012;10.352;2023-02-28T05:39:39;14.63;;;10.68;;
25169;SDS011;13129;48.012;10.352;2023-02-28T05:42:05;13.48;;;10.40;;
25169;SDS011;13129;48.012;10.352;2023-02-28T05:44:31;12.07;;;10.00;;
25169;SDS011;13129;48.012;10.352;2023-02-28T05:46:57;16.65;;;10.45;;
25169;SDS011;13129;48.012;10.352;2023-02-28T05:49:22;13.35;;;10.10;;
25169;SDS011;13129;48.012;10.352;2023-02-28T05:51:48;14.02;;;10.32;;
25169;SDS011;13129;48.012;10.352;2023-02-28T05:54:14;15.43;;;10.80;;
25169;SDS011;13129;48.012;10.352;2023-02-28T05:56:40;14.98;;;10.80;;
25169;SDS011;13129;48.012;10.352;2023-02-28T05:59:08;16.98;;;10.57;;
25169;SDS011;13129;48.012;10.352;2023-02-28T06:01:36;14.40;;;12.02;;
25169;SDS011;13129;48.012;10.352;2023-02-28T06:04:04;19.50;;;10.25;;
25169;SDS011;13129;48.012;10.352;2023-02-28T06:06:31;17.25;;;10.95;;
25169;SDS011;13129;48.012;10.352;2023-02-28T06:08:59;15.23;;;11.30;;
25169;SDS011;13129;48.012;10.352;2023-02-28T06:11:25;16.85;;;12.10;;
25169;SDS011;13129;48.012;10.352;2023-02-28T06:13:55;14.70;;;11.23;;
25169;SDS011;13129;48.012;10.352;2023-02-28T06:16:22;16.67;;;12.75;;
25169;SDS011;13129;48.012;10.352;2023-02-28T06:18:49;15.70;;;10.80;;
25169;SDS011;13129;48.012;10.352;2023-02-28T06:21:15;16.05;;;11.98;;
25169;SDS011;13129;48.012;10.352;2023-02-28T06:23:40;18.00;;;12.40;;
25169;SDS011;13129;48.012;10.352;2023-02-28T06:26:06;21.48;;;12.63;;
25169;SDS011;13129;48.012;10.352;2023-02-28T06:28:32;16.15;;;12.73;;
25169;SDS011;13129;48.012;10.352;2023-02-28T06:30:57;13.85;;;11.68;;
25169;SDS011;13129;48.012;10.352;2023-02-28T06:33:23;16.90;;;12.38;;
25169;SDS011;13129;48.012;10.352;2023-02-28T06:35:50;15.55;;;13.18;;
25169;SDS011;13129;48.012;10.352;2023-02-28T06:38:16;18.30;;;12.68;;
25169;SDS011;13129;48.012;10.352;2023-02-28T06:40:43;15.75;;;11.90;;
25169;SDS011;13129;48.012;10.352;2023-02-28T06:43:09;16.30;;;13.18;;
25169;SDS011;13129;48.012;10.352;2023-02-28T06:45:41;16.75;;;12.30;;
25169;SDS011;13129;48.012;10.352;2023-02-28T06:48:08;16.45;;;12.30;;
25169;SDS011;13129;48.012;10.352;2023-02-28T06:50:34;16.63;;;13.32;;
25169;SDS011;13129;48.012;10.352;2023-02-28T06:53:00;16.05;;;11.68;;
25169;SDS011;13129;48.012;10.352;2023-02-28T06:55:26;16.23;;;13.27;;
25169;SDS011;13129;48.012;10.352;2023-02-28T06:57:52;14.00;;;11.68;;
25169;SDS011;13129;48.012;10.352;2023-02-28T07:00:19;20.75;;;12.98;;
25169;SDS011;13129;48.012;10.352;2023-02-28T07:02:46;18.02;;;12.73;;
25169;SDS011;13129;48.012;10.352;2023-02-28T07:05:12;20.23;;;12.70;;
25169;SDS011;13129;48.012;10.352;2023-02-28T07:07:38;18.35;;;13.20;;
25169;SDS011;13129;48.012;10.352;2023-02-28T07:12:36;17.50;;;12.55;;
25169;SDS011;13129;48.012;10.352;2023-02-28T07:15:03;15.38;;;12.32;;
25169;SDS011;13129;48.012;10.352;2023-02-28T07:17:29;18.27;;;13.23;;
25169;SDS011;13129;48.012;10.352;2023-02-28T07:19:55;15.65;;;12.68;;
25169;SDS011;13129;48.012;10.352;2023-02-28T07:22:21;16.90;;;13.90;;
25169;SDS011;13129;48.012;10.352;2023-02-28T07:24:47;18.70;;;13.73;;
25169;SDS011;13129;48.012;10.352;2023-02-28T07:27:12;17.92;;;13.50;;
25169;SDS011;13129;48.012;10.352;2023-02-28T07:29:50;17.83;;;13.70;;
25169;SDS011;13129;48.012;10.352;2023-02-28T07:32:17;19.50;;;14.23;;
25169;SDS011;13129;48.012;10.352;2023-02-28T07:34:43;18.33;;;13.38;;
25169;SDS011;13129;48.012;10.352;2023-02-28T07:37:09;17.70;;;12.85;;
25169;SDS011;13129;48.012;10.352;2023-02-28T07:39:35;16.80;;;13.07;;
25169;SDS011;13129;48.012;10.352;2023-02-28T07:42:03;16.42;;;12.60;;
25169;SDS011;13129;48.012;10.352;2023-02-28T07:44:31;15.98;;;13.13;;
25169;SDS011;13129;48.012;10.352;2023-02-28T07:46:57;18.38;;;13.23;;
25169;SDS011;13129;48.012;10.352;2023-02-28T07:49:22;17.65;;;13.38;;
25169;SDS011;13129;48.012;10.352;2023-02-28T07:51:48;19.45;;;13.82;;
25169;SDS011;13129;48.012;10.352;2023-02-28T07:54:14;16.45;;;13.57;;
25169;SDS011;13129;48.012;10.352;2023-02-28T07:56:39;18.52;;;14.30;;
25169;SDS011;13129;48.012;10.352;2023-02-28T07:59:05;19.67;;;14.68;;
25169;SDS011;13129;48.012;10.352;2023-02-28T08:01:30;16.88;;;14.15;;
25169;SDS011;13129;48.012;10.352;2023-02-28T08:03:56;17.42;;;13.60;;
25169;SDS011;13129;48.012;10.352;2023-02-28T08:06:24;17.85;;;13.38;;
25169;SDS011;13129;48.012;10.352;2023-02-28T08:08:51;19.65;;;13.57;;
25169;SDS011;13129;48.012;10.352;2023-02-28T08:11:17;19.52;;;13.18;;
25169;SDS011;13129;48.012;10.352;2023-02-28T08:13:44;18.92;;;14.23;;
25169;SDS011;13129;48.012;10.352;2023-02-28T08:16:11;18.15;;;12.95;;
25169;SDS011;13129;48.012;10.352;2023-02-28T08:18:42;18.70;;;14.10;;
25169;SDS011;13129;48.012;10.352;2023-02-28T08:21:08;19.90;;;13.50;;
25169;SDS011;13129;48.012;10.352;2023-02-28T08:23:34;17.60;;;13.38;;
25169;SDS011;13129;48.012;10.352;2023-02-28T08:26:00;20.40;;;14.32;;
25169;SDS011;13129;48.012;10.352;2023-02-28T08:28:26;17.70;;;13.77;;
25169;SDS011;13129;48.012;10.352;2023-02-28T08:30:52;17.10;;;14.10;;
25169;SDS011;13129;48.012;10.352;2023-02-28T08:33:17;18.23;;;14.27;;
25169;SDS011;13129;48.012;10.352;2023-02-28T08:35:43;18.85;;;13.48;;
25169;SDS011;13129;48.012;10.352;2023-02-28T08:38:09;18.85;;;14.50;;
25169;SDS011;13129;48.012;10.352;2023-02-28T08:40:34;18.10;;;14.48;;
25169;SDS011;13129;48.012;10.352;2023-02-28T08:43:00;18.13;;;13.98;;
25169;SDS011;13129;48.012;10.352;2023-02-28T08:45:25;17.20;;;14.10;;
25169;SDS011;13129;48.012;10.352;2023-02-28T08:47:51;18.35;;;14.98;;
25169;SDS011;13129;48.012;10.352;2023-02-28T08:50:19;17.95;;;13.98;;
25169;SDS011;13129;48.012;10.352;2023-02-28T08:52:45;19.85;;;13.93;;
25169;SDS011;13129;48.012;10.352;2023-02-28T08:55:10;17.50;;;14.82;;
25169;SDS011;13129;48.012;10.352;2023-02-28T08:57:36;18.55;;;15.20;;
25169;SDS011;13129;48.012;10.352;2023-02-28T09:00:02;17.35;;;15.48;;
25169;SDS011;13129;48.012;10.352;2023-02-28T09:02:29;18.95;;;15.13;;
25169;SDS011;13129;48.012;10.352;2023-02-28T09:04:58;18.05;;;14.80;;
25169;SDS011;13129;48.012;10.352;2023-02-28T09:07:24;17.27;;;14.73;;
25169;SDS011;13129;48.012;10.352;2023-02-28T09:09:50;17.38;;;12.55;;
25169;SDS011;13129;48.012;10.352;2023-02-28T09:12:20;18.95;;;13.00;;
25169;SDS011;13129;48.012;10.352;2023-02-28T09:14:47;17.58;;;13.55;;
25169;SDS011;13129;48.012;10.352;2023-02-28T09:17:12;15.40;;;12.73;;
25169;SDS011;13129;48.012;10.352;2023-02-28T09:19:38;15.88;;;12.23;;
25169;SDS011;13129;48.012;10.352;2023-02-28T09:22:04;14.43;;;12.93;;
25169;SDS011;13129;48.012;10.352;2023-02-28T09:24:29;17.23;;;13.82;;
25169;SDS011;13129;48.012;10.352;2023-02-28T09:26:56;16.98;;;12.82;;
25169;SDS011;13129;48.012;10.352;2023-02-28T09:29:22;17.05;;;13.88;;
25169;SDS011;13129;48.012;10.352;2023-02-28T09:31:47;16.00;;;13.50;;
25169;SDS011;13129;48.012;10.352;2023-02-28T09:34:13;16.55;;;13.88;;
25169;SDS011;13129;48.012;10.352;2023-02-28T09:36:39;16.95;;;13.50;;
25169;SDS011;13129;48.012;10.352;2023-02-28T09:39:05;16.25;;;14.57;;
25169;SDS011;13129;48.012;10.352;2023-02-28T09:41:36;17.13;;;13.73;;
25169;SDS011;13129;48.012;10.352;2023-02-28T09:44:16;17.58;;;14.23;;
25169;SDS011;13129;48.012;10.352;2023-02-28T09:46:50;16.50;;;13.82;;
25169;SDS011;13129;48.012;10.352;2023-02-28T09:49:22;15.05;;;12.85;;
25169;SDS011;13129;48.012;10.352;2023-02-28T09:52:09;16.15;;;13.30;;
25169;SDS011;13129;48.012;10.352;2023-02-28T09:54:38;13.93;;;12.38;;
25169;SDS011;13129;48.012;10.352;2023-02-28T09:57:19;15.13;;;12.88;;
25169;SDS011;13129;48.012;10.352;2023-02-28T10:02:46;14.77;;;12.98;;
25169;SDS011;13129;48.012;10.352;2023-02-28T10:08:38;18.38;;;14.65;;
25169;SDS011;13129;48.012;10.352;2023-02-28T10:11:12;19.05;;;13.88;;
25169;SDS011;13129;48.012;10.352;2023-02-28T10:16:31;15.90;;;13.30;;
25169;SDS011;13129;48.012;10.352;2023-02-28T10:22:01;15.50;;;12.95;;
25169;SDS011;13129;48.012;10.352;2023-02-28T10:24:44;15.90;;;12.60;;
25169;SDS011;13129;48.012;10.352;2023-02-28T10:27:16;18.08;;;14.45;;
25169;SDS011;13129;48.012;10.352;2023-02-28T10:29:44;14.93;;;12.90;;
25169;SDS011;13129;48.012;10.352;2023-02-28T10:32:17;16.65;;;13.43;;
25169;SDS011;13129;48.012;10.352;2023-02-28T10:35:10;18.33;;;13.63;;
25169;SDS011;13129;48.012;10.352;2023-02-28T10:37:37;15.98;;;13.43;;
25169;SDS011;13129;48.012;10.352;2023-02-28T10:40:05;18.35;;;12.80;;
25169;SDS011;13129;48.012;10.352;2023-02-28T10:42:33;16.35;;;13.30;;
25169;SDS011;13129;48.012;10.352;2023-02-28T10:45:14;17.95;;;14.23;;
25169;SDS011;13129;48.012;10.352;2023-02-28T10:47:49;18.25;;;14.30;;
25169;SDS011;13129;48.012;10.352;2023-02-28T10:55:36;16.70;;;13.63;;
25169;SDS011;13129;48.012;10.352;2023-02-28T10:58:02;16.27;;;13.00;;
25169;SDS011;13129;48.012;10.352;2023-02-28T11:00:38;19.08;;;13.75;;
25169;SDS011;13129;48.012;10.352;2023-02-28T11:03:06;16.48;;;13.80;;
25169;SDS011;13129;48.012;10.352;2023-02-28T11:05:58;18.88;;;14.50;;
25169;SDS011;13129;48.012;10.352;2023-02-28T11:08:31;18.90;;;15.57;;
25169;SDS011;13129;48.012;10.352;2023-02-28T11:10:58;16.65;;;14.93;;
25169;SDS011;13129;48.012;10.352;2023-02-28T11:13:32;16.15;;;14.07;;
25169;SDS011;13129;48.012;10.352;2023-02-28T11:16:01;16.98;;;14.60;;
25169;SDS011;13129;48.012;10.352;2023-02-28T11:21:25;16.63;;;14.63;;
25169;SDS011;13129;48.012;10.352;2023-02-28T11:26:47;22.10;;;16.40;;
25169;SDS011;13129;48.012;10.352;2023-02-28T11:29:34;13.60;;;12.10;;
25169;SDS011;13129;48.012;10.352;2023-02-28T11:34:36;19.55;;;14.95;;
25169;SDS011;13129;48.012;10.352;2023-02-28T11:37:03;18.02;;;14.88;;
25169;SDS011;13129;48.012;10.352;2023-02-28T11:39:31;15.40;;;13.63;;
25169;SDS011;13129;48.012;10.352;2023-02-28T11:47:24;19.33;;;14.98;;
25169;SDS011;13129;48.012;10.352;2023-02-28T12:15:02;20.70;;;16.48;;
25169;SDS011;13129;48.012;10.352;2023-02-28T12:17:40;18.17;;;16.23;;
25169;SDS011;13129;48.012;10.352;2023-02-28T12:28:48;20.55;;;16.27;;
25169;SDS011;13129;48.012;10.352;2023-02-28T12:31:20;18.35;;;15.52;;
25169;SDS011;13129;48.012;10.352;2023-02-28T12:33:52;20.50;;;15.25;;
25169;SDS011;13129;48.012;10.352;2023-02-28T12:36:21;22.90;;;18.02;;
25169;SDS011;13129;48.012;10.352;2023-02-28T12:38:51;21.42;;;15.85;;
25169;SDS011;13129;48.012;10.352;2023-02-28T12:41:47;21.10;;;16.40;;
25169;SDS011;13129;48.012;10.352;2023-02-28T12:44:35;20.90;;;17.47;;
25169;SDS011;13129;48.012;10.352;2023-02-28T12:47:09;21.20;;;15.77;;
25169;SDS011;13129;48.012;10.352;2023-02-28T12:49:48;20.38;;;15.63;;
25169;SDS011;13129;48.012;10.352;2023-02-28T12:52:47;19.98;;;15.90;;
25169;SDS011;13129;48.012;10.352;2023-02-28T12:55:35;19.90;;;15.70;;
25169;SDS011;13129;48.012;10.352;2023-02-28T13:03:45;21.45;;;16.83;;
25169;SDS011;13129;48.012;10.352;2023-02-28T13:09:16;20.45;;;16.15;;
25169;SDS011;13129;48.012;10.352;2023-02-28T13:11:47;21.42;;;16.83;;
25169;SDS011;13129;48.012;10.352;2023-02-28T13:16:53;21.42;;;17.20;;
25169;SDS011;13129;48.012;10.352;2023-02-28T13:19:22;20.35;;;16.38;;
25169;SDS011;13129;48.012;10.352;2023-02-28T13:21:50;17.15;;;15.32;;
25169;SDS011;13129;48.012;10.352;2023-02-28T13:29:58;17.70;;;14.38;;
25169;SDS011;13129;48.012;10.352;2023-02-28T13:32:32;18.25;;;15.00;;
25169;SDS011;13129;48.012;10.352;2023-02-28T13:35:46;19.98;;;15.50;;
25169;SDS011;13129;48.012;10.352;2023-02-28T13:38:21;19.48;;;15.32;;
25169;SDS011;13129;48.012;10.352;2023-02-28T13:40:50;19.27;;;16.08;;
25169;SDS011;13129;48.012;10.352;2023-02-28T13:43:16;18.60;;;14.75;;
25169;SDS011;13129;48.012;10.352;2023-02-28T13:46:05;21.00;;;16.42;;
25169;SDS011;13129;48.012;10.352;2023-02-28T13:48:34;19.33;;;16.35;;
25169;SDS011;13129;48.012;10.352;2023-02-28T13:51:00;18.08;;;15.82;;
25169;SDS011;13129;48.012;10.352;2023-02-28T13:54:07;18.25;;;15.90;;
25169;SDS011;13129;48.012;10.352;2023-02-28T13:56:52;20.45;;;16.67;;
25169;SDS011;13129;48.012;10.352;2023-02-28T14:05:15;18.63;;;16.38;;
25169;SDS011;13129;48.012;10.352;2023-02-28T14:07:50;19.33;;;16.20;;
25169;SDS011;13129;48.012;10.352;2023-02-28T14:10:28;21.05;;;16.50;;
25169;SDS011;13129;48.012;10.352;2023-02-28T14:12:58;21.60;;;16.38;;
25169;SDS011;13129;48.012;10.352;2023-02-28T14:17:58;24.40;;;17.92;;
25169;SDS011;13129;48.012;10.352;2023-02-28T14:20:29;18.83;;;16.33;;
25169;SDS011;13129;48.012;10.352;2023-02-28T14:26:19;22.27;;;16.58;;
25169;SDS011;13129;48.012;10.352;2023-02-28T14:29:24;23.13;;;16.38;;
25169;SDS011;13129;48.012;10.352;2023-02-28T14:37:37;23.48;;;17.67;;
25169;SDS011;13129;48.012;10.352;2023-02-28T14:40:11;20.77;;;16.33;;
25169;SDS011;13129;48.012;10.352;2023-02-28T14:42:46;19.80;;;16.35;;
25169;SDS011;13129;48.012;10.352;2023-02-28T14:45:24;20.63;;;17.77;;
25169;SDS011;13129;48.012;10.352;2023-02-28T14:47:51;21.63;;;16.67;;
25169;SDS011;13129;48.012;10.352;2023-02-28T14:50:21;19.83;;;17.00;;
25169;SDS011;13129;48.012;10.352;2023-02-28T14:52:54;19.42;;;16.42;;
25169;SDS011;13129;48.012;10.352;2023-02-28T14:55:29;19.92;;;16.73;;
25169;SDS011;13129;48.012;10.352;2023-02-28T14:58:04;20.35;;;16.60;;
25169;SDS011;13129;48.012;10.352;2023-02-28T15:00:32;19.80;;;16.00;;
25169;SDS011;13129;48.012;10.352;2023-02-28T15:03:00;24.27;;;17.00;;
25169;SDS011;13129;48.012;10.352;2023-02-28T15:05:42;20.10;;;17.33;;
25169;SDS011;13129;48.012;10.352;2023-02-28T15:08:16;21.05;;;16.95;;
25169;SDS011;13129;48.012;10.352;2023-02-28T15:10:43;18.92;;;15.20;;
25169;SDS011;13129;48.012;10.352;2023-02-28T15:13:40;22.80;;;17.30;;
25169;SDS011;13129;48.012;10.352;2023-02-28T15:16:08;21.27;;;15.32;;
25169;SDS011;13129;48.012;10.352;2023-02-28T15:21:13;21.65;;;16.98;;
25169;SDS011;13129;48.012;10.352;2023-02-28T15:23:42;17.80;;;15.23;;
25169;SDS011;13129;48.012;10.352;2023-02-28T15:26:19;18.00;;;15.65;;
25169;SDS011;13129;48.012;10.352;2023-02-28T15:28:49;20.42;;;16.55;;
25169;SDS011;13129;48.012;10.352;2023-02-28T15:31:21;19.58;;;16.65;;
25169;SDS011;13129;48.012;10.352;2023-02-28T15:33:52;19.92;;;16.80;;
25169;SDS011;13129;48.012;10.352;2023-02-28T15:36:26;18.80;;;16.80;;
25169;SDS011;13129;48.012;10.352;2023-02-28T15:38:55;22.30;;;17.38;;
25169;SDS011;13129;48.012;10.352;2023-02-28T15:41:25;18.52;;;15.90;;
25169;SDS011;13129;48.012;10.352;2023-02-28T15:46:41;20.88;;;17.70;;
25169;SDS011;13129;48.012;10.352;2023-02-28T15:49:17;20.67;;;16.98;;
25169;SDS011;13129;48.012;10.352;2023-02-28T15:51:45;22.00;;;16.52;;
25169;SDS011;13129;48.012;10.352;2023-02-28T15:54:18;21.95;;;17.48;;
25169;SDS011;13129;48.012;10.352;2023-02-28T15:56:52;20.00;;;16.63;;
25169;SDS011;13129;48.012;10.352;2023-02-28T15:59:27;21.88;;;16.92;;
25169;SDS011;13129;48.012;10.352;2023-02-28T16:04:53;18.73;;;16.52;;
25169;SDS011;13129;48.012;10.352;2023-02-28T16:07:21;23.15;;;16.63;;
25169;SDS011;13129;48.012;10.352;2023-02-28T16:09:47;21.00;;;17.20;;
25169;SDS011;13129;48.012;10.352;2023-02-28T16:12:14;21.55;;;16.90;;
25169;SDS011;13129;48.012;10.352;2023-02-28T16:14:40;22.45;;;16.58;;
25169;SDS011;13129;48.012;10.352;2023-02-28T16:17:20;19.33;;;16.25;;
25169;SDS011;13129;48.012;10.352;2023-02-28T16:19:49;21.60;;;17.17;;
25169;SDS011;13129;48.012;10.352;2023-02-28T16:22:15;22.33;;;18.58;;
25169;SDS011;13129;48.012;10.352;2023-02-28T16:24:42;27.95;;;20.08;;
25169;SDS011;13129;48.012;10.352;2023-02-28T16:27:11;29.13;;;21.30;;
25169;SDS011;13129;48.012;10.352;2023-02-28T16:30:01;25.13;;;18.13;;
25169;SDS011;13129;48.012;10.352;2023-02-28T16:32:28;23.20;;;16.50;;
25169;SDS011;13129;48.012;10.352;2023-02-28T16:34:55;21.67;;;17.63;;
25169;SDS011;13129;48.012;10.352;2023-02-28T16:37:21;34.85;;;18.25;;
25169;SDS011;13129;48.012;10.352;2023-02-28T16:39:47;23.55;;;17.05;;
25169;SDS011;13129;48.012;10.352;2023-02-28T16:42:33;18.60;;;16.60;;
25169;SDS011;13129;48.012;10.352;2023-02-28T16:44:58;23.05;;;18.23;;
25169;SDS011;13129;48.012;10.352;2023-02-28T16:47:28;24.38;;;17.25;;
25169;SDS011;13129;48.012;10.352;2023-02-28T16:49:56;22.85;;;18.38;;
25169;SDS011;13129;48.012;10.352;2023-02-28T16:52:22;25.15;;;18.92;;
25169;SDS011;13129;48.012;10.352;2023-02-28T16:54:47;21.05;;;17.95;;
25169;SDS011;13129;48.012;10.352;2023-02-28T16:57:20;26.60;;;18.77;;
25169;SDS011;13129;48.012;10.352;2023-02-28T16:59:48;25.17;;;18.00;;
25169;SDS011;13129;48.012;10.352;2023-02-28T17:02:16;23.52;;;18.45;;
25169;SDS011;13129;48.012;10.352;2023-02-28T17:04:44;24.83;;;19.23;;
25169;SDS011;13129;48.012;10.352;2023-02-28T17:07:13;24.67;;;18.65;;
25169;SDS011;13129;48.012;10.352;2023-02-28T17:09:41;28.05;;;20.63;;
25169;SDS011;13129;48.012;10.352;2023-02-28T17:12:08;32.25;;;22.98;;
25169;SDS011;13129;48.012;10.352;2023-02-28T17:14:34;32.00;;;22.50;;
25169;SDS011;13129;48.012;10.352;2023-02-28T17:17:00;31.15;;;23.30;;
25169;SDS011;13129;48.012;10.352;2023-02-28T17:19:26;28.13;;;21.63;;
25169;SDS011;13129;48.012;10.352;2023-02-28T17:21:53;26.73;;;20.25;;
25169;SDS011;13129;48.012;10.352;2023-02-28T17:24:18;27.27;;;20.02;;
25169;SDS011;13129;48.012;10.352;2023-02-28T17:26:44;25.55;;;19.77;;
25169;SDS011;13129;48.012;10.352;2023-02-28T17:29:19;25.67;;;19.70;;
25169;SDS011;13129;48.012;10.352;2023-02-28T17:31:46;30.02;;;20.45;;
25169;SDS011;13129;48.012;10.352;2023-02-28T17:34:13;25.38;;;19.10;;
25169;SDS011;13129;48.012;10.352;2023-02-28T17:36:44;27.08;;;19.98;;
25169;SDS011;13129;48.012;10.352;2023-02-28T17:39:12;25.80;;;19.73;;
25169;SDS011;13129;48.012;10.352;2023-02-28T17:41:39;31.02;;;20.08;;
25169;SDS011;13129;48.012;10.352;2023-02-28T17:44:06;25.77;;;20.20;;
25169;SDS011;13129;48.012;10.352;2023-02-28T17:46:33;29.35;;;21.05;;
25169;SDS011;13129;48.012;10.352;2023-02-28T17:48:58;27.90;;;20.95;;
25169;SDS011;13129;48.012;10.352;2023-02-28T17:51:24;25.75;;;20.42;;
25169;SDS011;13129;48.012;10.352;2023-02-28T17:53:51;30.30;;;19.63;;
25169;SDS011;13129;48.012;10.352;2023-02-28T17:56:21;30.90;;;20.58;;
25169;SDS011;13129;48.012;10.352;2023-02-28T17:58:49;30.45;;;20.73;;
25169;SDS011;13129;48.012;10.352;2023-02-28T18:01:16;28.92;;;20.83;;
25169;SDS011;13129;48.012;10.352;2023-02-28T18:03:41;29.55;;;21.65;;
25169;SDS011;13129;48.012;10.352;2023-02-28T18:06:11;28.60;;;20.73;;
25169;SDS011;13129;48.012;10.352;2023-02-28T18:08:43;27.92;;;20.20;;
25169;SDS011;13129;48.012;10.352;2023-02-28T18:11:09;33.40;;;21.52;;
25169;SDS011;13129;48.012;10.352;2023-02-28T18:13:45;25.00;;;19.80;;
25169;SDS011;13129;48.012;10.352;2023-02-28T18:16:14;27.13;;;20.42;;
25169;SDS011;13129;48.012;10.352;2023-02-28T18:18:40;26.92;;;20.77;;
25169;SDS011;13129;48.012;10.352;2023-02-28T18:21:07;32.10;;;21.15;;
25169;SDS011;13129;48.012;10.352;2023-02-28T18:23:34;29.33;;;24.05;;
25169;SDS011;13129;48.012;10.352;2023-02-28T18:26:00;32.72;;;22.80;;
25169;SDS011;13129;48.012;10.352;2023-02-28T18:28:26;33.38;;;22.38;;
25169;SDS011;13129;48.012;10.352;2023-02-28T18:30:52;28.92;;;21.88;;
25169;SDS011;13129;48.012;10.352;2023-02-28T18:33:17;27.55;;;20.60;;
25169;SDS011;13129;48.012;10.352;2023-02-28T18:35:44;32.08;;;21.92;;
25169;SDS011;13129;48.012;10.352;2023-02-28T18:38:11;28.75;;;19.95;;
25169;SDS011;13129;48.012;10.352;2023-02-28T18:40:39;29.35;;;20.60;;
25169;SDS011;13129;48.012;10.352;2023-02-28T18:43:08;32.53;;;21.90;;
25169;SDS011;13129;48.012;10.352;2023-02-28T18:45:34;31.73;;;21.48;;
25169;SDS011;13129;48.012;10.352;2023-02-28T18:48:01;32.63;;;22.38;;
25169;SDS011;13129;48.012;10.352;2023-02-28T18:50:26;31.33;;;20.35;;
25169;SDS011;13129;48.012;10.352;2023-02-28T18:52:53;30.85;;;22.15;;
25169;SDS011;13129;48.012;10.352;2023-02-28T18:55:19;30.63;;;22.25;;
25169;SDS011;13129;48.012;10.352;2023-02-28T18:57:45;33.45;;;22.48;;
25169;SDS011;13129;48.012;10.352;2023-02-28T19:00:12;33.13;;;23.40;;
25169;SDS011;13129;48.012;10.352;2023-02-28T19:02:39;33.78;;;22.58;;
25169;SDS011;13129;48.012;10.352;2023-02-28T19:05:06;31.75;;;22.27;;
25169;SDS011;13129;48.012;10.352;2023-02-28T19:07:33;33.20;;;22.15;;
25169;SDS011;13129;48.012;10.352;2023-02-28T19:09:59;34.35;;;23.80;;
25169;SDS011;13129;48.012;10.352;2023-02-28T19:12:26;30.27;;;21.10;;
25169;SDS011;13129;48.012;10.352;2023-02-28T19:14:51;32.05;;;21.98;;
25169;SDS011;13129;48.012;10.352;2023-02-28T19:17:17;32.38;;;21.38;;
25169;SDS011;13129;48.012;10.352;2023-02-28T19:19:43;31.17;;;23.17;;
25169;SDS011;13129;48.012;10.352;2023-02-28T19:22:09;31.95;;;22.65;;
25169;SDS011;13129;48.012;10.352;2023-02-28T19:24:34;33.22;;;22.35;;
25169;SDS011;13129;48.012;10.352;2023-02-28T19:27:00;33.30;;;22.42;;
25169;SDS011;13129;48.012;10.352;2023-02-28T19:29:32;31.55;;;21.73;;
25169;SDS011;13129;48.012;10.352;2023-02-28T19:31:58;32.63;;;22.33;;
25169;SDS011;13129;48.012;10.352;2023-02-28T19:34:24;33.25;;;22.98;;
25169;SDS011;13129;48.012;10.352;2023-02-28T19:36:49;33.40;;;23.38;;
25169;SDS011;13129;48.012;10.352;2023-02-28T19:39:15;32.67;;;22.83;;
25169;SDS011;13129;48.012;10.352;2023-02-28T19:41:42;31.42;;;24.15;;
25169;SDS011;13129;48.012;10.352;2023-02-28T19:44:08;31.65;;;22.23;;
25169;SDS011;13129;48.012;10.352;2023-02-28T19:46:34;37.67;;;24.88;;
25169;SDS011;13129;48.012;10.352;2023-02-28T19:49:00;36.17;;;24.23;;
25169;SDS011;13129;48.012;10.352;2023-02-28T19:51:25;32.95;;;23.27;;
25169;SDS011;13129;48.012;10.352;2023-02-28T19:53:52;37.33;;;25.45;;
25169;SDS011;13129;48.012;10.352;2023-02-28T19:56:18;39.40;;;25.10;;
25169;SDS011;13129;48.012;10.352;2023-02-28T19:58:44;37.90;;;23.92;;
25169;SDS011;13129;48.012;10.352;2023-02-28T20:01:11;33.50;;;23.92;;
25169;SDS011;13129;48.012;10.352;2023-02-28T20:03:39;36.55;;;25.65;;
25169;SDS011;13129;48.012;10.352;2023-02-28T20:06:06;34.97;;;25.35;;
25169;SDS011;13129;48.012;10.352;2023-02-28T20:08:34;39.70;;;26.30;;
25169;SDS011;13129;48.012;10.352;2023-02-28T20:11:01;39.10;;;26.17;;
25169;SDS011;13129;48.012;10.352;2023-02-28T20:13:28;36.63;;;25.30;;
25169;SDS011;13129;48.012;10.352;2023-02-28T20:15:57;38.90;;;26.75;;
25169;SDS011;13129;48.012;10.352;2023-02-28T20:18:23;41.05;;;26.77;;
25169;SDS011;13129;48.012;10.352;2023-02-28T20:20:49;38.83;;;26.50;;
25169;SDS011;13129;48.012;10.352;2023-02-28T20:23:15;36.78;;;25.80;;
25169;SDS011;13129;48.012;10.352;2023-02-28T20:25:40;35.30;;;25.88;;
25169;SDS011;13129;48.012;10.352;2023-02-28T20:28:06;42.38;;;28.20;;
25169;SDS011;13129;48.012;10.352;2023-02-28T20:30:32;40.03;;;26.70;;
25169;SDS011;13129;48.012;10.352;2023-02-28T20:32:58;34.92;;;25.63;;
25169;SDS011;13129;48.012;10.352;2023-02-28T20:35:24;36.35;;;25.20;;
25169;SDS011;13129;48.012;10.352;2023-02-28T20:37:49;37.58;;;24.83;;
25169;SDS011;13129;48.012;10.352;2023-02-28T20:40:15;32.50;;;24.15;;
25169;SDS011;13129;48.012;10.352;2023-02-28T20:42:41;34.50;;;24.15;;